Håll muspekaren över respektive flygplats för att se aktuella METAR och TAF.
Informationen kommer från Aviation Weather Center och vi tar inget ansvar för ev fel.

whatever whatever

I=ILS ((min200ft)/550m), L=LOC(min250ft/800m), V=VOR(min300ft/800m), N=NDB(min300ft/800m), G=GPS, C=CIRC(min500ft/1600m),
Takeoff 500m, rwy lgt 250m, ctr lgt 200m, multi RVR 150m   RWY


SWEDEN

AirportMETARTAF
Arvidsjaur (I12/I30) ESNX 281650Z AUTO 15006KT 9999NDV NCD 10/07 Q0993 TAF ESNX 281430Z 2815/2819 18010KT 9999 FEW012 BKN045
Borlänge (I32/V14) ESSD 281650Z 25004KT CAVOK 12/07 Q1000 TAF ESSD 281430Z 2815/2819 25010KT 9999 FEW040
Bromma (I12/I30) ESSB 281650Z 25007KT CAVOK 15/10 Q1001 TAF ESSB 281430Z 2815/2820 24010KT 9999 SCT045
Gällivare (I30/N12) ESNG 281650Z 14009KT 9999 OVC014 10/08 Q0993 TAF ESNG 281430Z 2815/2821 12011KT 9999 -RA BKN007 TEMPO 2815/2819 RA BKN012 PROB40 2819/2821 BKN015
Halmstad (I19/N01) ESMT 281650Z 27021G31KT 9999 FEW027 BKN032 OVC054 16/10 Q1010 TAF ESMT 281406Z 2815/2821 27018KT 9999 BKN030TCU TEMPO 2815/2821 27020G32KT
Hemavan (I33/?15) B ESUT 281650Z AUTO 15008KT 9999 -RA FEW031/// OVC041/// 07/06 Q0990
Jönköping (I19/V01) ESGJ 281650Z 24012KT 8000 SHRA BKN021 12/10 Q1006 TAF ESGJ 281430Z 2815/2824 25013KT 9999 SCT025 TEMPO 2815/2817 SHRA BKN020CB
Kalmar (I16/V34) ESMQ 281650Z 25010KT 9999 FEW014 SCT040 15/10 Q1008 TAF ESMQ 281430Z 2815/2822 24014KT 9999 SCT025
Karlstad (I03/I21) ESOK 281650Z 22005KT CAVOK 13/09 Q1002 TAF ESOK 281430Z 2815/2822 25010KT 9999 SCT040
Kiruna (I21/V03) ESNQ 281650Z 16008KT 9999 -RA FEW017 BKN051 09/08 Q0991 TAF ESNQ 281430Z 2815/2822 15013KT 9999 -RA BKN007 TEMPO 2815/2822 RA BKN015
Kramfors (I35/L17) ESNK 281650Z AUTO 24003KT 9999 NCD 09/08 Q0996 TAF ESNK 281430Z 2815/2819 22006KT CAVOK
Kristianstad (I19/N01) ESMK 281650Z 26014KT 9999 FEW045 SCT065 16/11 Q1011 TAF ESMK 281406Z 2815/2819 27012KT 9999 BKN030TCU TEMPO 2815/2819 27018G28KT
Landvetter (I03/I21) ESGG 281650Z 25016KT 9999 -SHRA BKN018 BKN030CB 13/10 Q1007 TAF ESGG 281130Z 2812/2912 26015G28KT 9999 SCT020 PROB40 2812/2816 SHRA BKN025CB BECMG 2818/2821 25008KT BECMG 2902/2904 22015G25KT 2500 RA BKN004 TEMPO 2904/2911 7000 -RA BKN010 BECMG 2911/2912 9999 NSW SCT016
Linköping-SAAB (I11/I29) ESSL 281650Z 27011KT 240V340 9999 FEW046 15/10 Q1004 TAF ESSL 281430Z 2815/2823 26013G25KT 9999 SCT040
Ljungbyhed (I29/V11) ESTL 281650Z AUTO 26014G24KT 9999NDV FEW033/// SCT046/// BKN061/// 16/11 Q1011 TAF ESTL 281104Z 2812/2815 27018KT 9999 BKN030TCU TEMPO 2812/2815 27018G28KT
Luleå (I14/I32) ESPA 281650Z 17015KT 9999 OVC008 12/11 Q0996 TAF AMD ESPA 281626Z 2816/2824 16015KT 9999 BKN009 PROB40 2816/2824 BKN015 BECMG 2818/2821 19005KT
Lycksele (I14/L32) ESNL 281650Z AUTO 14002KT 9999 FEW067/// 07/05 Q0994
Norrköping (I09/I27) ESSP 281650Z 26013KT CAVOK 15/09 Q1003 TAF ESSP 281430Z 2815/2821 25014KT 9999 SCT035
Ronneby (I19/N01) ESDF 281650Z 26009KT 9999 SCT035 16/11 Q1009 TAF ESDF 281430Z 2815/2822 27012G22KT 9999 SCT030 TEMPO 2815/2817 SHRA
Skavsta (I26/L08) ESKN 281650Z 27010KT 9999 FEW036 14/09 Q1002 TAF ESKN 281130Z 2812/2912 25014KT 9999 SCT020 TEMPO 2906/2912 4000 RA BKN012 BECMG 2907/2910 29015G28KT
Skelefteå (I28/V10) ESNS 281650Z 16005KT 140V200 9999 SCT020 11/10 Q0995 TAF ESNS 281430Z 2815/2822 18007KT 9999 BKN015 TEMPO 2815/2818 BKN009
Skövde (N01/I19) ESGR 281650Z AUTO 24009KT 9999 NCD 14/09 Q1004
Stockholm-Arlanda (I01LR/I19LR L08/I26) ESSA 281650Z 23006KT CAVOK 14/10 Q1000 NOSIG TAF ESSA 281130Z 2812/2912 25015KT 9999 SCT020 BECMG 2822/2824 25005KT PROB40 2900/2906 0500 BCFG BECMG 2908/2910 18018G30KT RA BKN007 TEMPO 2910/2912 -RA BKN015
Storuman (I33/V15) ESUD 281650Z AUTO 16005KT 9999 FEW053/// 10/07 Q0993
Sturup (I17/I35) ESMS 281650Z 27011KT 9999 SCT036 16/10 Q1012 TAF ESMS 281100Z 2812/2912 26015KT 9999 BKN030TCU TEMPO 2812/2816 26018G28KT TEMPO 2902/2906 BKN008 FM290600 22015KT 9999 BKN015 TEMPO 2906/2912 22020G30KT BKN012
Sundsvall (I16/I34) ESNN 281650Z 34002KT CAVOK 11/09 Q0996 TAF ESNN 281430Z 2815/2824 24007KT 9999 FEW030
Sveg-ESND (L09)B ESND 281650Z AUTO 27005KT 9999 BKN051/// OVC120/// 12/06 Q0998
Säve (I19/N01) ESGP 281650Z 26019KT 9999 BKN022 15/11 Q1007 TAF ESGP 281430Z 2815/2820 26016G30KT 9999 SCT020TCU
Såtenäs (I19/N01) ESIB 281650Z AUTO 25015KT 9999 NCD 15/12 Q1004 TAF ESIB 281130Z 2812/2815 25020G30KT 9999 SCT027 RMK MIL
Torsby (L16/L34) ESST 281650Z VRB02KT CAVOK 14/09 Q1001
Trollhättan (I33/N15) ESGT 281650Z 24010KT 9999 SCT020 SCT025 15/11 Q1005 TAF ESGT 281430Z 2815/2821 25015G28KT 9999 SCT025
Umeå (I14/I32) ESNU 281650Z 19006KT 9999 SCT010 OVC015 12/11 Q0996 TAF ESNU 281430Z 2815/2824 18010KT 9999 BKN015 TEMPO 2815/2817 BKN009 BECMG 2822/2824 25006KT
Vilhelmina (I28/N10) B ESNV 281650Z AUTO 20004KT 9999 -RA FEW043/// 10/07 Q0994
Visby (I21/V03) ESSV 281650Z 25015KT CAVOK 16/11 Q1005 TAF ESSV 281430Z 2815/2821 24015G25KT 9999 SCT020
Västerås (I19/V01) ESOW 281650Z 23008KT CAVOK 15/10 Q1001 TAF ESOW 281430Z 2815/2820 24010KT 9999 SCT030
Växjö (I19/L01) ESMX 281650Z 24012KT 200V260 9999 FEW031 SCT043 14/10 Q1008 TAF ESMX 281430Z 2815/2824 26012G24KT 9999 SCT025 PROB40 2815/2817 SHRA BKN014CB
Ängelholm (I14/N32) ESTA 281650Z 26019KT 9999 FEW032 BKN059 BKN150 17/10 Q1010 TAF ESTA 281406Z 2815/2822 27020KT 9999 SCT030TCU TEMPO 2815/2822 27020G32KT
Örebro (I01/I19) ESOE 281650Z 24009KT 9999 FEW020 15/10 Q1002 TAF ESOE 281430Z 2815/2824 24013KT 9999 SCT030 TEMPO 2822/2824 2000 BR
Örnsköldsvik (I12/V30) ESNO 281650Z 21003KT CAVOK 11/11 Q0995 TAF ESNO 281430Z 2815/2822 18010KT 9999 SCT020 BECMG 2817/2819 24007KT
Östersund (I12/V30) ESNZ 281650Z 28017KT 9999 SCT031 10/05 Q0997 TAF ESNZ 281430Z 2815/2823 25008KT CAVOK

NORDIC

AirportMETARTAF
Alta (I11) B ENAT 281650Z 14008KT 9999 SCT036 BKN051 12/08 Q0995 RMK WIND 700FT 16017KT TAF ENAT 281400Z 2815/2823 16015KT 9999 FEW020 BKN040
Andoya (L14/V21/V32) ENAN 281650Z 19005KT 9999 BKN053 11/08 Q0989 TAF AMD ENAN 2813/2912 VRB05KT 9999 FEW020 BKN040 TEMPO 2818/2912 RADZ BKN014 BECMG 2906/2909 23018KT
Aro (I07/L25) B ENML 281650Z 27014KT 9999 VCSH FEW014CB SCT036 BKN056 09/06 Q1003 TAF ENML 281400Z 2815/2823 26020G30KT 9999 -SHRA FEW015TCU BKN030 TEMPO 2815/2817 4000 SHRA BKN012CB BECMG 2816/2819 25015KT
Banak (I35/L17) ENNA 281650Z 16015KT 9999 -DZ BKN023 12/08 Q0997 RMK WIND 1800FT 17021KT TAF ENNA 2812/2912 18020KT 9999 -RA FEW015 BKN025
Bardufors (I28/L10) B ENDU 281650Z 28005KT 9999 -SHRA FEW030 BKN045 10/09 Q0989 NOSIG RMK WIND 1100FT 08004KT WIND 2200FT 12015KT TAF ENDU 2812/2912 12008KT 9999 FEW035 BKN050 TEMPO 2909/2912 22010KT
Bergen (I17/I35) ENBR 281650Z 31005KT 260V340 9999 FEW020 SCT030 BKN040 11/08 Q1007 RMK WIND 1200FT 29006KT TAF ENBR 281100Z 2812/2912 32012KT 9999 -SHRA FEW012TCU BKN020 PROB30 TEMPO 2812/2815 BKN012 BECMG 2815/2818 VRB05KT BECMG 2821/2824 15015G25KT 4000 RA BKN012 BECMG 2901/2904 22028G40KT 9999 SHRA SCT012CB BKN020 PROB30 2901/2905 TS
Billund (I09/I27) EKBI 281650Z AUTO 25013KT 9999NDV SCT038/// BKN150/// 15/11 Q1014 TAF EKBI 281053Z 2812/2912 27015KT 9999 BKN030 TEMPO 2812/2816 26020G30KT -SHRA SCT030TCU TEMPO 2823/2902 BKN008 TEMPO 2902/2906 23015G25KT BKN008 TEMPO 2906/2909 24015G25KT BKN012 TEMPO 2909/2912 24015G25KT RA
Björneborg (I30/V12) EFPO 281650Z AUTO 19004KT 9999 BKN007/// BKN017/// 12/12 Q0998 TAF AMD EFPO 281544Z 2815/2817 16005KT 9999 BKN005
Bodö (I07/I25) ENBO 281650Z 02003KT 9999 FEW040 BKN200 11/08 Q0989 NOSIG TAF ENBO 2812/2912 VRB05KT 9999 -SHRA FEW025 SCT050 TEMPO 2812/2818 SHRA SCT020CB BECMG 2822/2824 24025KT TEMPO 2822/2902 4000 SHRA BKN012 BECMG 2904/2906 22012KT
Bornholm (I11/I29) EKRN 281650Z AUTO 27023KT 9999NDV BKN062/// BKN180/// BKN200/// 18/13 Q1013 TAF EKRN 281413Z 2815/2821 26025KT 9999 BKN030 TEMPO 2815/2817 25025G35KT -SHRA SCT030TCU TEMPO 2817/2821 27025G35KT
Bronoysund (L04) ENBN 281620Z 23010KT 9999 -SHRA FEW006 BKN012 11/11 Q0989 TAF AMD ENBN 281626Z 2816/2821 25014KT 9999 -SHRA FEW008 BKN020 TEMPO 2816/2821 25020G30KT SHRA BKN012CB
Enontekis (I21/V03) EFET 281650Z AUTO 14011KT 100V190 9999 -RA OVC012 09/08 Q0995
Esbjerg (I08/I26) EKEB 281650Z AUTO 25014KT 9999NDV BKN027/// BKN088/// BKN100/// 16/11 Q1015 TAF EKEB 281413Z 2815/2822 26018KT 9999 SCT025 TEMPO 2815/2822 26020G35KT
Faroar (L13/L31) B EKVG 281650Z AUTO 10008KT 9999NDV SCT110/// 08/03 Q1001 RMK FEW100/// BKN120/// WIND 850FT 11014KT TAF EKVG 281500Z 2815/2820 11012KT 9999 BKN025
Framnes (L19) ENNK 281650Z 06003KT 9999 -RA FEW030 BKN047 11/10 Q0989
Hammerfest (L05/L23) ENHF 281650Z 18012KT 130V210 9999 FEW040 BKN064 12/07 Q0995 RMK WIND 1254FT 16029G41KT TAF ENHF 281400Z 2815/2824 19015KT 9999 SCT040 TEMPO 2815/2824 18018G30KT
Haugesund (I14/V32) ENHD 281650Z 28009KT 9999 SCT023 BKN040 13/08 Q1008 TAF ENHD 281400Z 2815/2821 30012KT 9999 -SHRA FEW015TCU BKN040 BECMG 2815/2817 VRB05KT BECMG 2819/2821 17010KT
Helsinki (I04/I15/I22/V33) EFHK 281650Z 16018KT 6000 RA BKN008 BKN011 11/10 Q1002 NOSIG TAF AMD EFHK 281548Z 2815/2915 15015KT 9999 -RA BKN011 TEMPO 2815/2817 4500 RA BKN006 BECMG 2817/2819 25005KT 4000 BR BKN005 TEMPO 2820/2906 0400 FG VV002 BECMG 2906/2908 9999 SCT015
Hoybuktmoen (I24/V06) ENKR 281650Z 16006KT 9999 FEW044 SCT160 11/07 Q1002 RMK WIND 731FT 18016KT TAF ENKR 281400Z 2815/2824 17014KT 9999 SCT030
Ivalo (I22/N22) EFIV 281650Z AUTO 16010KT 130V200 9999 OVC033 11/07 Q1000 TAF EFIV 281152Z 2812/2816 17011G25KT 9999 -RA BKN020
Jyvaskyla (I30/V12) EFJY 281650Z AUTO 14013KT 9999 -RA OVC009 10/09 Q1001 TAF EFJY 281436Z 2815/2915 16012KT 9999 OVC020 TEMPO 2815/2820 7000 RA BKN010 BECMG 2820/2822 4000 BR BKN004 BECMG 2904/2906 22007KT 9999 BKN006 BECMG 2908/2910 BKN020
Karup (I09/I27) EKKA 281650Z AUTO 25011KT 9999NDV SCT043/// BKN093/// 16/11 Q1013 TAF EKKA 281428Z 2815/2912 26015KT 9999 BKN025 TEMPO 2815/2817 27016G28KT -SHRA SCT020TCU BECMG 2817/2820 21010KT BECMG 2820/2823 5000 -RA BR BKN012 TEMPO 2823/2907 2500 RA BKN004 BECMG 2907/2910 23015G28KT 9999 NSW BKN020 TEMPO 2910/2912 5000 SHRA BKN012 SCT020CB
Kastrup (I04/I12/I22/I30) EKCH 281650Z 27016KT 9999 FEW036 BKN055 17/10 Q1013 NOSIG TAF EKCH 281101Z 2812/2912 26018KT 9999 BKN030TCU TEMPO 2812/2816 27020G30KT TEMPO 2902/2904 BKN012 FM290400 22020KT 9999 BKN015 TEMPO 2904/2912 22020G30KT BKN012
Kemi (I18/N36) EFKE 281650Z AUTO 15014KT 9999 -RA OVC009 11/10 Q0999 TAF AMD EFKE 281524Z 2815/2821 15015KT 9999 -RA BKN008 TEMPO 2815/2818 15015G25KT 7000 RA OVC015 TEMPO 2818/2821 6000 -RADZ
Kittila (I34/L16) EFKT 281650Z 14011KT 020V200 9999 -RA SCT012 BKN039 10/08 Q0997 TAF EFKT 281428Z 2815/2817 15011KT 9999 -RA BKN009 TEMPO 2815/2817 7000 RA SCT010 OVC020
Kristiansand (I04/I22) ENCN 281650Z 25011KT 9999 FEW044 15/09 Q1008 TAF ENCN 281400Z 2815/2821 25008KT 9999 FEW025 SCT035
Kristiansund (I07/V25) ENKB 281650Z 23013KT 190V250 9999 FEW006 SCT016 BKN039 09/07 Q1002 TAF ENKB 281400Z 2815/2821 25025G35KT 9999 -SHRA FEW015TCU BKN030 BECMG 2818/2821 24015G25KT
Kruunupyy (I19/N01) EFKK 281650Z 13006KT 9999 -RA BKN055 BKN075 11/10 Q0998 TAF EFKK 281428Z 2815/2823 15010KT 9999 SCT008 BKN020 TEMPO 2815/2821 5000 SHRA BKN010 BECMG 2821/2823 BKN004
Kuopio (I33/V15) EFKU 281650Z AUTO 15015KT 9999 SCT014 BKN048 BKN098 11/09 Q1004 TAF EFKU 281436Z 2815/2915 15016KT 9999 BKN012 TEMPO 2815/2818 SCT012 BKN030 TEMPO 2818/2902 5000 RA BKN007 BECMG 2902/2904 19006KT BKN007 TEMPO 2902/2908 4000 -DZRA OVC004 BECMG 2911/2913 BKN015
Leknes (L03) ENLK 281550Z 19002KT 9999 FEW025 BKN055 12/08 Q0989
Malmi (V36/N18) EFHF 281650Z 15011KT 100V190 6000 RA BKN009 11/10 Q1003 TAF EFHF 281127Z 2812/2816 15013KT 8000 -RA BKN015 TEMPO 2812/2816 15015G25KT 5000 RA BKN009
Mariehamn (I21/V03) EFMA 281650Z 23007KT 9999 FEW030 SCT065 14/12 Q1000 TAF EFMA 281436Z 2815/2824 23010KT 9999 FEW010
Moirana (L14/32) ENRA 281650Z 10002KT 9999 -SHRA SCT030 BKN050 11/10 Q0989 TAF ENRA 281400Z 2815/2821 VRB05KT 9999 -SHRA FEW015 BKN040 PROB40 TEMPO 2815/2821 20010KT SHRA BKN014CB
Namsos (L25/N07) ENNM 281650Z 25025G38KT 9999 -RA FEW015 SCT018 BKN024 11/09 Q0995
Narvik (I17/V35) B ENEV 281650Z VRB02KT 9999 -DZ FEW038 BKN049 11/09 Q0989 RMK WIND 1400FT 17003KT TAF ENEV 281400Z 2815/2821 16008KT 9999 -SHRA FEW012 BKN040
Odense (I24/06) EKOD 281650Z 25018KT 9999 FEW033 SCT160 BKN220 16/12 Q1014 TAF EKOD 281155Z 2812/2818 24016KT 9999 BKN030TCU TEMPO 2812/2816 27020G30KT
Orland (I15/I33) ENOL 281620Z 25025KT 9999 -SHRA SCT010 SCT020CB 10/07 Q0999 TEMPO 25035G45KT 4000 SHRA BKN010 TAF ENOL 2812/2912 25020G30KT 9999 -SHRA BKN020 TEMPO 2812/2818 25035G45KT TEMPO 2812/2824 4000 SHRA BKN010 SCT020CB BECMG 2821/2824 VRB08KT BECMG 2903/2906 12015KT
Oslo (I01/I19) ENGM 281650Z 22006KT CAVOK 13/08 Q1001 NOSIG TAF COR ENGM 2812/2912 24008KT 9999 SCT030 PROB30 TEMPO 2812/2814 SHRA FEW030CB BKN050 BECMG 2901/2903 3000 RA BKN006 BECMG 2904/2906 9999 -SHRA FEW020TCU SCT030 TEMPO 2906/2912 23015G25KT SHRA SCT020CB BKN030
Pammerfors (I24/V06) EFTP 281650Z AUTO 16010KT 8000 RA FEW005 SCT007 BKN011 BKN018CB 12/11 Q0999 TAF EFTP 281436Z 2815/2915 18012KT 9999 SCT010 BKN020 TEMPO 2815/2818 7000 RA BKN005 TEMPO 2818/2822 BKN005 BECMG 2822/2900 24005KT BKN005 BECMG 2907/2909 BKN020 BECMG 2913/2915 5000 RA BKN008
Roskilde (I11/I21/03/29) EKRK 281650Z AUTO 27018G29KT 9999NDV SCT140/// 17/10 Q1013 TAF EKRK 281413Z 2815/2824 28018KT 9999 BKN030 TEMPO 2815/2822 26022G32KT SCT030TCU
Rovaniemi (I21/V03) EFRO 281650Z AUTO 14011KT 9999 -RA FEW013 BKN021 OVC047 10/09 Q1000 TAF EFRO 281428Z 2815/2915 15010KT 9999 -RA BKN015 TEMPO 2815/2822 7000 RA BKN012 BECMG 2822/2824 OVC005 TEMPO 2822/2824 6000 RA TEMPO 2900/2905 4000 RADZ BKN004 BECMG 2905/2907 2500 -DZ BKN002 BECMG 2908/2910 9999 BKN007 BECMG 2910/2912 BKN011 TEMPO 2910/2915 5000 -DZ OVC015
Rygge (I30/N12) ENRY 281650Z 23007KT CAVOK 16/10 Q1003 TAF COR ENRY 2812/2912 24012KT 9999 FEW030 SCT050 BECMG 2900/2902 17025G35KT 4000 RA BKN006 BECMG 2904/2906 23020G30KT 9999 FEW015TCU SCT025 TEMPO 2905/2909 SHRA SCT020CB BKN030
Röros (I32) B ENRO 281650Z VRB03KT 9999 FEW030 SCT041 08/03 Q1000 TAF AMD ENRO 281649Z 2816/2818 34005KT 9999 FEW030 SCT040
Skagen (L09/L27) ENSK 281650Z 26004KT 9999 VCSH BKN045 11/09 Q0989
Sonderborg (I32/N14) EKSB 281650Z 25011KT 220V300 9999 FEW034 SCT043 BKN160 17/11 Q1015 TAF EKSB 281458Z 2815/2822 25015KT 9999 BKN030 TEMPO 2815/2818 26020G30KT
Sorkjosen (15/33) ENSR 281650Z 15022KT -RA 9999 FEW030 SCT040 BKN090 12/08 Q0992 WIND 1119FT 14023KT
Sorstokken (L15/V33) ENSO 281650Z 26003KT 220V300 9999 FEW022TCU SCT032 SCT090 12/08 Q1007 TAF ENSO 281400Z 2815/2818 31012KT 9999 -SHRA FEW015TCU BKN030 BECMG 2815/2818 24008KT
Stavanger (I11/I18/I36/V29) ENZV 281650Z 26010KT 9999 FEW021 BKN048 14/10 Q1009 TAF ENZV 281100Z 2812/2912 29018KT 9999 -SHRA FEW015TCU BKN030 BECMG 2814/2817 28008KT BECMG 2821/2824 16015KT 4000 RA BKN012 BECMG 2901/2904 24028G40KT 9999 SHRA SCT012CB BKN020 PROB30 2901/2905 TS
Stokka (L21) ENST 281650Z VRB02KT 9999 -SHRA FEW010 SCT014 BKN020 10/09 Q0988 RMK WIND 300FT VRB05KT
Svalbard (I10/L28) C ENSB 281650Z 00000KT 9999 FEW032 BKN040 03/02 Q1003 RMK WIND 1400FT /////KT TAF ENSB 2812/2912 16008KT 9999 FEW020 BKN035 BECMG 2909/2912 05015KT
Svolvaer (L01) ENSH 281650Z 34002KT CAVOK 12/06 Q0989 TAF ENSH 281400Z 2815/2820 VRB08KT 9999 -SHRA FEW015 BKN035 PROB30 TEMPO 2815/2820 FEW014CB BKN025
Torp (I18/I36) ENTO 281650Z 25007KT CAVOK 15/07 Q1003 TAF COR ENTO 2812/2912 25012KT 9999 FEW030 SCT050 BECMG 2900/2902 18025G35KT 3000 RA BKN004 BECMG 2904/2906 24020G30KT 9999 FEW015TCU SCT025 TEMPO 2905/2909 SHRA SCT020CB BKN030
Tromsö (I01/I19) B ENTC 281650Z 00000KT 9999 -SHRA FEW024 BKN076 10/08 Q0990 RMK WIND 2600FT 16018KT TAF AMD ENTC 2814/2912 VRB05KT 9999 BKN040 TEMPO 2906/2912 19010KT RADZ BKN014
Trondheim (I09/I27) B ENVA 281650Z 27024KT 9999 SCT028 BKN040 11/06 Q1000 TEMPO 24025G40KT SHRA RMK WIND 670FT 28019G29KT TAF ENVA 281100Z 2812/2912 24008KT 9999 FEW040 BKN070 BECMG 2813/2815 27025KT TEMPO 2812/2818 28035G45KT 4000 SHRA BKN014CB BECMG 2818/2821 25015KT BECMG 2900/2903 13008KT TEMPO 2905/2909 16015G25KT
Uleåborg (I12/V30) EFOU 281650Z AUTO 15015KT 9999 -RA FEW032/// SCT047/// OVC056/// 11/09 Q1000 TAF EFOU 281428Z 2815/2915 16014KT 9999 -RA FEW013 BKN020 TEMPO 2815/2818 5000 RA TEMPO 2818/2901 5000 RA BKN008 BECMG 2901/2903 BKN006 TEMPO 2901/2907 4000 -DZ BKN004 BECMG 2908/2910 BKN015
Vamdrup (N01/N19) EKVD 281650Z AUTO 26014KT //// ///////// 16/11 Q1014 TAF EKVD 281155Z 2812/2816 25016KT 9999 BKN030TCU TEMPO 2812/2816 27020G30KT
Vojens (I11/I29) EKSP 281650Z 26014KT 9999 SCT030 BKN160 16/12 Q1015 TAF EKSP 281428Z 2815/2912 24018G30KT 9999 SCT015 BKN030 BECMG 2815/2817 26015KT BECMG 2818/2821 22010KT TEMPO 2822/2912 23015G28KT 2500 RA BR BKN005
Wasa (I16/V34) EFVA 281650Z AUTO 16006KT 9999 SCT007/// BKN015/// BKN036/// 12/11 Q0997 TAF EFVA 281428Z 2815/2915 17013KT 9999 SCT008 BKN020 TEMPO 2815/2819 7000 SHRA BKN010 SCT015CB PROB30 2819/2824 BKN004 BECMG 2900/2902 23004KT
Åbo (I26/V08) EFTU 281650Z AUTO 22003KT 190V250 9999 FEW010/// BKN024/// 13/12 Q1000 TAF EFTU 281436Z 2815/2915 21006KT 9999 SCT009 TEMPO 2815/2819 BKN009 TEMPO 2821/2903 0800 FG VV003 BECMG 2911/2913 5000 RA BKN004
Ålborg (I08/I26) EKYT 281650Z 27017KT 9999 FEW035 BKN120 15/12 Q1010 NOSIG TAF EKYT 281428Z 2815/2912 25015G25KT 9999 BKN025 TEMPO 2815/2817 26020G32KT SCT020TCU BECMG 2818/2821 21012KT BECMG 2821/2823 5000 -RA BR BKN012 TEMPO 2823/2906 2500 RA BKN004 BECMG 2906/2909 23020G32KT 9999 NSW BKN020 TEMPO 2909/2912 5000 SHRA BKN012 SCT020CB
Ålesund (I25/V07) B ENAL 281650Z 24016KT 9999 VCSH FEW013 BKN023 10/06 Q1003 TAF ENAL 281400Z 2815/2822 25015KT 9999 -SHRA FEW015TCU BKN030 TEMPO 2815/2817 25020G30KT
Århus (I10/I28) EKAH 281650Z AUTO 26015G25KT 220V290 9999NDV BKN110/// 16/06 Q1012 TAF EKAH 281053Z 2812/2912 27015KT 9999 BKN030 TEMPO 2812/2816 26015G25KT SCT025TCU TEMPO 2823/2906 BKN008 BECMG 2900/2902 21012KT TEMPO 2906/2909 BKN012 TEMPO 2909/2912 23015G25KT SHRA SCT025CB

EUROPE

AirportMETARTAF
Augsburg-EDMA (I25/G07) B EDMA 281650Z 23006KT CAVOK 18/11 Q1028 TAF EDMA 281400Z 2815/2824 24010KT CAVOK BECMG 2816/2818 22005KT
Birmingham-EGBB (I15/I33) EGBB 281650Z 20007KT 150V240 9999 SCT014 19/17 Q1019 TAF EGBB 281057Z 2812/2912 24012KT 9999 SCT018 PROB40 TEMPO 2812/2818 BKN014 TEMPO 2818/2902 6000 -RADZ BKN009 PROB40 TEMPO 2818/2904 24015G25KT TEMPO 2902/2905 7000 RA BKN009
Dortmund (I06/I24) EDLW 281650Z 24014KT CAVOK 19/09 Q1023 TAF EDLW 281100Z 2812/2912 23015KT 9999 BKN020 TEMPO 2812/2816 24015G25KT BECMG 2816/2818 23010KT BECMG 2903/2906 22015KT TEMPO 2904/2912 22015G25KT
Eindhoven-EHEH (I04/I22) EHEH 281625Z AUTO 22015KT 200V260 9999 OVC064 22/12 Q1023 BLU 24013KT CAVOK TAF EHEH 281137Z 2812/2918 22012KT 9999 FEW040 TEMPO 2812/2817 24013G23KT BECMG 2909/2911 SCT015 BKN020 TEMPO 2909/2918 24015G25KT BECMG 2911/2912 SCT020 BKN030
Kardla (N14/N32) B EEKA 281550Z 18006KT 150V230 9999 -SHRA SCT015CB BKN023 12/12 Q1003 TAF EEKA 281200Z 2813/2819 17015G25KT 8000 RA BKN007 OVC015 TEMPO 2813/2819 3000 SHRA BKN004 SCT012CB OVC015
Krakow (I25) EPKK 281630Z 24006KT CAVOK 17/12 Q1022 TAF EPKK 281130Z 2812/2912 24013KT CAVOK
Kuressaare (V17/V35) EEKE 281650Z AUTO 21012KT 9999NDV FEW007 BKN009 BKN018 14/13 Q1004 TAF EEKE 281400Z 2815/2821 20020G30KT 5000 RA BKN008 OVC020 TEMPO 2815/2821 2500 SHRA BKN004 SCT015CB OVC020
Köln (I14/I24/I32) EDDK 281650Z 25006KT CAVOK 21/11 Q1024 NOSIG TAF EDDK 281100Z 2812/2918 24009KT 9999 BKN030 BECMG 2823/2902 15006KT BECMG 2909/2912 22011KT
Le Bourget-LFPB (I07/I27/L25/ 03/21/09) LFPB 281630Z AUTO 22008KT 180V250 CAVOK 24/14 Q1027 NOSIG TAF LFPB 281100Z 2812/2912 25010KT 9999 BKN030 PROB30 2905/2907 4000 BR TEMPO 2907/2909 BKN014 TEMPO 2911/2912 23015G25KT
Linz-LOWL (I09/I27) LOWL 281650Z 25005KT CAVOK 18/13 Q1027 NOSIG TAF LOWL 281115Z 2812/2912 VRB02KT CAVOK TX22/2814Z TN10/2905Z TEMPO 2812/2816 27007KT BECMG 2900/2902 5000 BR NSC TEMPO 2902/2908 0500 BCFG FEW002 BECMG 2908/2910 CAVOK
Pardubice-LKPD (I27) LKPD 281600Z 27012KT CAVOK 22/09 Q1023 NOSIG RMK BLU BLU TAF LKPD 281100Z 2812/2912 26010KT CAVOK
Prag-LKPR (I06/I13/I24/I31) LKPR 281630Z 24009KT CAVOK 19/11 Q1024 NOSIG TAF AMD LKPR 281145Z 2812/2918 21014KT CAVOK TEMPO 2812/2818 23014G25KT
Reykjavik-BIRK (I19/L13/ 01/06/24/31) BIRK 281600Z 31006KT 290V350 9999 FEW035 09/03 Q1002
Salzburg-LOWS (I16) LOWS 281650Z 27003KT CAVOK 18/14 Q1028 NOSIG TAF LOWS 281115Z 2812/2912 35005KT CAVOK TX22/2912Z TN09/2905Z TEMPO 2812/2816 32009KT 9999 FEW060 BKN300 BECMG 2816/2818 15005KT BECMG 2907/2909 03005KT
St Petersburg (I10/I28) B ULLI 281630Z 14006MPS 9999 OVC006 10/09 Q1011 R88/290050 NOSIG RMK OBST OBSC TAF ULLI 281356Z 2815/2915 14004G09MPS 6000 BKN005 BKN018 TEMPO 2815/2821 16005G11MPS 2100 -SHRA BR BKN003 BKN015CB FM282100 16005G11MPS 3000 -RA BR BKN004 BKN017 TEMPO 2821/2912 1500 -SHRA BR BKN003 BKN015CB TEMPO 2912/2915 2100 -SHRA BR BKN003 BKN015CB
Tallin (I08/I26) EETN 281650Z 17013KT 140V200 9999 -RA OVC009 10/09 Q1004 TEMPO 3000 RA TAF EETN 281130Z 2812/2912 18012KT 9999 SCT012 BKN020 TEMPO 2812/2816 18015G26KT 4000 SHRA BKN007 SCT013CB OVC015 TEMPO 2816/2821 2000 SHRA BR BKN004 SCT015CB BECMG 2821/2823 23007KT TEMPO 2821/2906 0800 FG VV002
Ulenurme (N26/C08) B EETU 281650Z AUTO 18014KT 9999 -RA BKN064/// 10/06 Q1008 TAF EETU 281100Z 2812/2818 19015KT 9999 BKN025 OVC040 TEMPO 2815/2818 5000 RA BKN010 OVC025
Vilnius EYVI 281650Z 18011KT 4000 -SHRA BR SCT031CB BKN060 09/08 Q1014 BECMG OVC015 TAF EYVI 281100Z 2812/2912 16018G28KT 7000 BKN015 TEMPO 2814/2821 2000 SHRA BKN005 BKN013CB BECMG 2821/2822 26008KT 3000 RA BR OVC003 TEMPO 2822/2905 1200 BECMG 2906/2907 7000 BKN007 OVC015
Warszawa (I11/I33/V15/V29) EPWA 281630Z 22006KT 9999 BKN044 17/11 Q1018 NOSIG TAF AMD EPWA 281607Z 2816/2912 21010KT CAVOK BECMG 2816/2819 27010KT PROB30 TEMPO 2816/2818 BKN030TCU
Wroclaw (I29) EPWR 281630Z 25008KT CAVOK 20/11 Q1021 TAF EPWR 281130Z 2812/2912 27010KT CAVOK PROB40 TEMPO 2812/2815 27015G25KT

OTHER

AirportMETARTAF